Mozart, West Virginia
Current Conditions -  °F | °C
As of 1:53 AM on Monday 24 Nov 2014 (Local Time) from KHLG Reporting Station
Overcast Overcast  
Wind Chill: 59°   Ceiling: 7500
Heat Index: 59°   Visibility: 10mi
Dew Point: 52°   Wind: 18mph
Humidity: 78%   Direction: 180°S
Pressure: 29.38"   Gusts: 29mph
Location:  40.0729°N, 80.6524°W
Report Text: KHLG 240653Z AUTO 18016G25KT 10SM SCT055 OVC075 15/11 A2938 RMK AO2 SLP948 T01500111
Loading
Personal Weather Stations






























Interactive Weather Map New forecast layout! Learn more

10-Day Weather Forecast

Advertisements
Track Severe Weather on mobile